EDT,Max TemperatureF,Mean TemperatureF,Min TemperatureF,Max Dew PointF,MeanDew PointF,Min DewpointF,Max Humidity, Mean Humidity, Min Humidity, Max Sea Level PressureIn, Mean Sea Level PressureIn, Min Sea Level PressureIn, Max VisibilityMiles, Mean VisibilityMiles, Min VisibilityMiles, Max Wind SpeedMPH, Mean Wind SpeedMPH, Max Gust SpeedMPH,PrecipitationIn, CloudCover, Events, WindDirDegrees
2013-9-1,84,75,66,70,66,63,94,82,48,29.98,29.92,29.87,10,8,0,9,3,,0.00,6,,308
2013-9-2,84,76,68,70,68,64,100,83,58,29.98,29.93,29.88,10,6,0,9,2,25,0.00,6,,279
2013-9-3,80,71,62,68,63,57,94,78,50,30.09,30.00,29.93,10,8,0,13,3,20,0.00,5,,331
2013-9-4,80,70,59,63,58,52,100,80,37,30.19,30.14,30.10,10,6,0,7,1,,0.00,4,,353
2013-9-5,80,68,55,63,59,55,100,81,44,30.24,30.20,30.17,10,6,0,8,1,,0.00,4,,24
2013-9-6,84,72,59,63,60,55,100,80,39,30.25,30.20,30.13,10,6,0,5,1,,0.00,5,,349
2013-9-7,82,70,59,64,61,59,100,81,48,30.17,30.12,30.05,10,6,0,10,1,,0.00,5,,245
2013-9-8,84,73,62,68,63,59,100,81,48,30.08,30.05,30.01,10,5,0,5,0,,0.00,5,,272
2013-9-9,86,75,64,68,65,63,100,80,45,30.17,30.12,30.08,10,6,0,9,1,,0.00,4,,108
2013-9-10,87,76,64,72,66,64,100,80,49,30.28,30.22,30.17,10,6,0,9,0,,0.00,3,,162
2013-9-11,82,75,68,72,68,64,100,90,62,30.28,30.22,30.16,10,4,0,8,1,16,0.00,6,,224
2013-9-12,86,76,66,70,66,63,100,86,48,30.16,30.06,29.94,10,4,0,15,1,37,0.00,7,,302
2013-9-13,73,63,53,64,54,46,100,71,43,30.06,29.98,29.94,10,8,0,12,4,23,0.00,4,,356
2013-9-14,71,58,46,54,48,43,100,74,43,30.15,30.10,30.05,10,8,0,10,3,,0.00,2,,56
2013-9-15,78,64,50,63,55,50,100,80,42,30.22,30.17,30.14,10,6,0,6,2,,0.00,4,,94
2013-9-16,69,63,57,63,59,55,100,90,68,30.25,30.20,30.16,10,6,0,7,1,,0.00,7,,25
2013-9-17,77,66,55,63,57,54,100,78,53,30.28,30.24,30.18,10,7,0,9,3,16,0.00,5,,77
2013-9-18,64,62,59,59,56,52,94,83,68,30.26,30.22,30.18,10,9,4,8,2,21,0.00,7,,77
2013-9-19,78,68,59,68,62,59,100,84,57,30.21,30.16,30.11,10,7,0,6,1,,0.00,6,,219
2013-9-20,82,72,62,66,63,61,100,81,48,30.12,30.04,29.93,10,5,0,7,1,,0.00,4,,193
2013-9-21,68,62,55,63,61,55,100,92,83,29.93,29.83,29.78,10,6,0,12,1,20,0.00,8,,348
2013-9-22,69,60,51,55,52,46,100,81,46,30.01,29.93,29.87,10,6,0,9,1,18,0.00,5,,24
2013-9-23,73,62,50,59,53,48,100,84,53,30.08,30.04,29.99,10,6,0,7,2,,0.00,5,,50
2013-9-24,77,66,55,61,56,52,100,80,44,30.10,30.02,29.94,10,6,0,6,2,,0.00,5,,67
2013-9-25,68,64,59,63,60,59,100,93,78,29.94,29.91,29.89,10,7,1,5,1,,0.00,7,,74
2013-9-26,75,66,57,61,57,52,100,81,50,30.10,30.01,29.93,10,8,0,6,1,,0.00,6,,16
2013-9-27,78,66,53,59,54,50,100,80,36,30.20,30.14,30.10,10,6,0,8,2,,0.00,4,,62
2013-9-28,77,64,51,59,55,52,100,81,44,30.26,30.19,30.14,10,6,0,9,3,,0.00,5,,78
2013-9-29,69,61,53,59,56,54,100,86,60,30.17,30.13,30.05,10,7,0,10,3,,0.00,5,,69
2013-9-30,69,62,55,61,57,55,100,86,60,30.12,30.08,30.03,10,6,0,9,0,,0.00,7,,75